Astoria Regional Airport
KAST : now visible

Airfield :











YOU CAN JOIN US ON...

 
LOGIN :

Register | Disclaimer

   EN    FR    IT 

 









Legend :    VFR   Marginal VFR   IFR   Intensive IFR   Very Intensive IFR
Visi :
Ceiling :
>= 8 km
>= 3000ft
5 to 8 km
1000 to 3000 ft
1500m to 5 km
500 to 1000 ft
800 to 1500m
200 to 500 ft
< 800m
< 200 ft
Symbols :   Thunderstorms  Fog  Heavy snow  Heavy precipitations  Wind > 20 kt







- Airport Elevation : 15 ft


KAST - Astoria Regional

CURRENT METAR :
  • 211701Z AUTO 11004KT 10SM FEW007 SCT023 OVC034 17/15 A3014 RMK AO2 CIG 022 RWY 08 T01670150 $

EXPIRED METARs :
  • 211635Z AUTO 09004KT 10SM SCT007 OVC023 16/15 A3014 RMK AO2 T01610150 $
  • 211615Z AUTO 10004KT 10SM BKN007 OVC023 16/15 A3014 RMK AO2 T01610150 $
  • 211555Z AUTO 10003KT 10SM OVC022 16/15 A3014 RMK AO2 SLP206 T01560150 $
  • 211455Z AUTO 00000KT 6SM BR FEW006 BKN018 OVC028 15/14 A3014 RMK AO2 VIS 2 RWY 08 RAE09 SLP205 P0000 60003 T01500144 50003 $
  • 211451Z AUTO 00000KT 5SM BR SCT006 BKN017 OVC028 15/14 A3014 RMK AO2 VIS 1 3/4 RWY 08 RAE09 P0000 $
  • 211421Z AUTO 15003KT 5SM BR BKN006 BKN010 OVC015 15/14 A3014 RMK AO2 VIS 2 1/2 RWY 08 RAE09 P0000 T01500144 $

TAF KAST
Valid from the 21 at 14:00 until the 22 at 12:00 UTC


211356Z 2114/2212 00000KT 3SM BR SCT006 OVC011
TEMPO 2114/2116 2SM -SHRA BR BKN006
FM211600 26003KT P6SM SCT005 BKN025 BKN040
FM212200 27006KT P6SM SCT025 OVC050
FM220500 20004KT P6SM BKN025 OVC040
FM221000 16002KT P6SM -RA OVC025
No reported NOTAMs for that airfield.



MET'MAP, your aeronautical weather chart ! - Copyright ORBIFLY December 2007 - Disclaimer

ORBIFLY MET'MAP TEAM :

Programming & Development : Alexandra Zaïnal
Concept & Development : Baudouin d'Aumeries
Co-Development & Prog : Marc-Olivier Méhu
Technical & hardware support : Manuel Goepfert

Contact : metmap@orbifly.com




SOURCES & CREDITS :

   NOAA       Earth
Advisory